createdAt,value
2019-02-22T00:05:01.967Z,34.10
2019-02-22T00:10:08.697Z,34.23
2019-02-22T00:15:13.931Z,32.83
2019-02-22T00:20:19.797Z,33.27
2019-02-22T00:25:26.597Z,32.78
2019-02-22T00:30:32.589Z,35.08
2019-02-22T00:35:37.811Z,34.30
2019-02-22T00:40:43.483Z,34.13
2019-02-22T00:45:49.276Z,33.70
2019-02-22T00:50:54.362Z,35.00
2019-02-22T00:56:00.609Z,34.25
2019-02-22T01:01:07.510Z,33.92
2019-02-22T01:06:13.064Z,34.58
2019-02-22T01:11:18.349Z,36.03
2019-02-22T01:16:23.601Z,35.03
2019-02-22T01:21:28.762Z,34.90
2019-02-22T01:26:34.625Z,35.33
2019-02-22T01:31:39.787Z,37.77
2019-02-22T01:36:46.027Z,38.83
2019-02-22T01:41:51.659Z,38.48
2019-02-22T01:46:56.818Z,38.30
2019-02-22T01:52:02.052Z,39.73
2019-02-22T01:57:07.288Z,39.73
2019-02-22T02:02:12.534Z,41.13
2019-02-22T02:07:18.165Z,40.45
2019-02-22T02:12:23.582Z,41.20
2019-02-22T02:17:29.011Z,43.63
2019-02-22T02:22:34.512Z,41.98
2019-02-22T02:27:39.670Z,44.47
2019-02-22T02:32:45.728Z,44.73
2019-02-22T02:37:51.269Z,43.85
2019-02-22T02:42:56.708Z,40.95
2019-02-22T02:48:02.286Z,41.90
2019-02-22T02:53:07.527Z,41.10
2019-02-22T02:58:12.895Z,40.90
2019-02-22T03:03:18.046Z,40.40
2019-02-22T03:08:25.261Z,37.83
2019-02-22T03:13:30.855Z,36.70
2019-02-22T03:18:36.256Z,36.77
2019-02-22T03:23:41.507Z,37.17
2019-02-22T03:28:47.615Z,36.05
2019-02-22T03:33:52.709Z,34.73
2019-02-22T03:38:58.300Z,33.60
2019-02-22T03:44:03.860Z,30.00
2019-02-22T03:49:09.052Z,29.82
2019-02-22T03:54:14.322Z,31.77
2019-02-22T03:59:19.602Z,31.37
2019-02-22T04:04:24.902Z,29.77
2019-02-22T04:09:30.507Z,28.30
2019-02-22T04:14:36.122Z,27.48
2019-02-22T04:19:41.426Z,29.05
2019-02-22T04:24:46.690Z,30.57
2019-02-22T04:29:52.189Z,26.67
2019-02-22T04:34:58.280Z,26.52
2019-02-22T04:40:03.587Z,26.30
2019-02-22T04:45:08.894Z,27.50
2019-02-22T04:50:14.137Z,28.23
2019-02-22T04:55:19.916Z,22.35
2019-02-22T05:00:26.907Z,20.83
2019-02-22T05:05:33.398Z,23.30
2019-02-22T05:10:38.910Z,22.42
2019-02-22T05:15:44.415Z,21.83
2019-02-22T05:20:51.170Z,19.48
2019-02-22T05:25:56.456Z,23.30
2019-02-22T05:31:02.030Z,21.75
2019-02-22T05:36:07.543Z,21.50
2019-02-22T05:41:12.824Z,21.33
2019-02-22T05:46:18.108Z,18.50
2019-02-22T05:51:23.385Z,19.07
2019-02-22T05:56:28.640Z,18.40
2019-02-22T06:01:33.910Z,16.63
2019-02-22T06:06:39.081Z,16.03
2019-02-22T06:11:45.173Z,14.23
2019-02-22T06:16:50.745Z,15.30
2019-02-22T06:21:55.896Z,15.83
2019-02-22T06:27:01.489Z,15.37
2019-02-22T06:32:06.975Z,16.77
2019-02-22T06:37:12.166Z,15.70
2019-02-22T06:42:18.784Z,17.53
2019-02-22T06:47:24.288Z,15.77
2019-02-22T06:52:29.878Z,16.17
2019-02-22T06:57:35.178Z,14.90
2019-02-22T07:02:40.457Z,15.30
2019-02-22T07:07:45.905Z,14.80
2019-02-22T07:13:01.237Z,14.18
2019-02-22T07:18:06.655Z,13.40
2019-02-22T07:23:11.834Z,14.57
2019-02-22T07:28:17.328Z,13.77
2019-02-22T07:33:23.282Z,12.37
2019-02-22T07:38:29.507Z,12.17
2019-02-22T07:43:34.717Z,12.90
2019-02-22T07:48:40.165Z,13.00
2019-02-22T07:53:45.433Z,13.47
2019-02-22T07:58:50.619Z,13.70
2019-02-22T08:03:57.087Z,11.63
2019-02-22T08:09:02.631Z,11.60
2019-02-22T08:14:09.612Z,12.07
2019-02-22T08:19:15.195Z,11.67
2019-02-22T08:24:20.763Z,12.33
2019-02-22T08:29:26.025Z,11.08
2019-02-22T08:34:31.281Z,10.63
2019-02-22T08:39:36.977Z,10.72
2019-02-22T08:44:42.183Z,11.40
2019-02-22T08:49:47.492Z,13.35
2019-02-22T08:54:53.164Z,12.90
2019-02-22T08:59:58.386Z,11.30
2019-02-22T09:05:03.575Z,11.03
2019-02-22T09:10:10.215Z,10.80
2019-02-22T09:15:15.586Z,11.38
2019-02-22T09:20:20.758Z,15.10
2019-02-22T09:25:26.012Z,17.40
2019-02-22T09:30:31.274Z,17.23
2019-02-22T09:35:36.883Z,15.60
2019-02-22T09:40:42.312Z,14.18
2019-02-22T09:45:47.648Z,14.95
2019-02-22T09:50:53.040Z,11.50
2019-02-22T09:55:58.877Z,11.12
2019-02-22T10:01:04.408Z,10.80
2019-02-22T10:06:12.099Z,11.87
2019-02-22T10:11:17.525Z,11.33
2019-02-22T10:16:22.786Z,7.07
2019-02-22T10:21:28.163Z,8.90
2019-02-22T10:26:33.668Z,9.33
2019-02-22T10:31:38.928Z,8.73
2019-02-22T10:36:45.474Z,9.40
2019-02-22T10:41:50.976Z,9.80
2019-02-22T10:46:56.490Z,11.18
2019-02-22T10:52:01.758Z,13.00
2019-02-22T10:57:06.946Z,13.73
2019-02-22T11:02:12.235Z,14.75
2019-02-22T11:07:17.834Z,12.13
2019-02-22T11:12:23.872Z,10.25
2019-02-22T11:17:30.005Z,9.60
2019-02-22T11:22:35.569Z,10.10
2019-02-22T11:27:43.213Z,13.73
2019-02-22T11:32:49.023Z,14.63
2019-02-22T11:37:54.232Z,15.77
2019-02-22T11:42:59.854Z,15.90
2019-02-22T11:48:09.043Z,13.93
2019-02-22T11:53:12.318Z,12.83
2019-02-22T11:58:17.565Z,9.87
2019-02-22T12:03:24.983Z,10.83
2019-02-22T12:08:30.159Z,8.50
2019-02-22T12:13:36.203Z,9.00
2019-02-22T12:18:41.564Z,9.10
2019-02-22T12:23:46.818Z,9.47
2019-02-22T12:28:52.829Z,9.10
2019-02-22T12:33:58.203Z,8.87
2019-02-22T12:39:06.046Z,9.13
2019-02-22T12:44:11.637Z,9.50
2019-02-22T12:49:17.235Z,12.83
2019-02-22T12:54:22.547Z,11.60
2019-02-22T12:59:28.052Z,11.10
2019-02-22T13:04:33.337Z,10.73
2019-02-22T13:09:38.539Z,10.70
2019-02-22T13:14:43.736Z,10.47
2019-02-22T13:19:48.963Z,9.07
2019-02-22T13:24:54.161Z,8.50
2019-02-22T13:30:00.837Z,9.27
2019-02-22T13:35:07.610Z,9.33
2019-02-22T13:40:13.797Z,9.63
2019-02-22T13:45:26.736Z,10.50
2019-02-22T13:50:25.948Z,10.10
2019-02-22T13:55:31.161Z,9.90
2019-02-22T14:00:36.728Z,10.27
2019-02-22T14:05:42.382Z,10.30
2019-02-22T14:10:48.063Z,11.43
2019-02-22T14:15:53.284Z,10.73
2019-02-22T14:20:58.815Z,14.00
2019-02-22T14:26:04.008Z,11.80
2019-02-22T14:31:09.201Z,12.20
2019-02-22T14:36:14.920Z,15.17
2019-02-22T14:41:20.572Z,15.07
2019-02-22T14:46:26.582Z,15.40
2019-02-22T14:51:31.933Z,16.10
2019-02-22T14:56:37.120Z,14.60
2019-02-22T15:01:42.323Z,12.97
2019-02-22T15:06:48.043Z,12.10
2019-02-22T15:11:53.683Z,13.23
2019-02-22T15:17:22.971Z,14.83
2019-02-22T15:22:28.234Z,16.40
2019-02-22T15:27:36.345Z,18.00
2019-02-22T15:32:41.398Z,18.70
2019-02-22T15:37:46.600Z,18.73
2019-02-22T15:42:51.819Z,18.60
2019-02-22T15:47:58.256Z,17.23
2019-02-22T15:53:03.468Z,16.37
2019-02-22T15:58:08.654Z,18.00
2019-02-22T16:03:14.757Z,18.40
2019-02-22T16:08:20.120Z,19.27
2019-02-22T16:13:25.335Z,20.03
2019-02-22T16:18:30.647Z,19.87
2019-02-22T16:23:35.841Z,20.70
2019-02-22T16:28:42.285Z,20.60
2019-02-22T16:33:49.019Z,21.00
2019-02-22T16:38:55.185Z,22.70
2019-02-22T16:44:01.700Z,22.50
2019-02-22T16:49:07.748Z,21.20
2019-02-22T16:54:12.981Z,19.70
2019-02-22T16:59:18.539Z,19.43
2019-02-22T17:04:28.206Z,20.07
2019-02-22T17:09:33.465Z,18.07
2019-02-22T17:14:39.367Z,20.10
2019-02-22T17:19:45.044Z,19.50
2019-02-22T17:24:51.336Z,18.10
2019-02-22T17:29:56.942Z,20.77
2019-02-22T17:35:02.178Z,19.37
2019-02-22T17:40:10.323Z,19.97
2019-02-22T17:45:16.697Z,19.97
2019-02-22T17:50:21.944Z,22.43
2019-02-22T17:55:27.136Z,24.27
2019-02-22T18:00:32.454Z,23.53
2019-02-22T18:05:37.687Z,22.33
2019-02-22T18:10:42.869Z,22.30
2019-02-22T18:15:48.770Z,21.73
2019-02-22T18:20:53.983Z,20.40
2019-02-22T18:25:59.510Z,22.83
2019-02-22T18:31:04.708Z,24.73
2019-02-22T18:36:09.910Z,25.90
2019-02-22T18:41:15.234Z,25.57
2019-02-22T18:46:20.426Z,23.93
2019-02-22T18:51:25.854Z,22.43
2019-02-22T18:56:31.492Z,23.13
2019-02-22T19:01:37.027Z,21.23
2019-02-22T19:06:42.658Z,18.33
2019-02-22T19:11:48.117Z,16.60
2019-02-22T19:16:53.270Z,18.57
2019-02-22T19:21:58.815Z,16.13
2019-02-22T19:27:04.052Z,14.97
2019-02-22T19:32:09.275Z,13.90
2019-02-22T19:37:14.666Z,13.53
2019-02-22T19:42:21.176Z,14.13
2019-02-22T19:47:27.533Z,13.87
2019-02-22T19:52:33.870Z,13.47
2019-02-22T19:57:39.486Z,13.83
2019-02-22T20:02:44.730Z,14.17
2019-02-22T20:07:49.923Z,12.73
2019-02-22T20:12:55.594Z,14.37
2019-02-22T20:18:01.623Z,13.60
2019-02-22T20:23:07.672Z,13.87
2019-02-22T20:28:13.203Z,13.30
2019-02-22T20:33:18.395Z,13.60
2019-02-22T20:38:23.661Z,13.00
2019-02-22T20:43:29.374Z,13.30
2019-02-22T20:48:35.914Z,13.27
2019-02-22T20:53:41.111Z,14.07
2019-02-22T20:58:46.657Z,12.80
2019-02-22T21:03:52.727Z,14.37
2019-02-22T21:08:57.941Z,13.60
2019-02-22T21:14:03.241Z,13.90
2019-02-22T21:19:09.513Z,13.53
2019-02-22T21:24:15.276Z,14.10
2019-02-22T21:29:20.573Z,13.87
2019-02-22T21:34:25.783Z,14.37
2019-02-22T21:39:31.070Z,14.00
2019-02-22T21:44:36.651Z,14.20
2019-02-22T21:49:42.215Z,14.20
2019-02-22T21:54:47.408Z,13.90
2019-02-22T21:59:52.708Z,13.77
2019-02-22T22:04:57.929Z,14.90
2019-02-22T22:10:03.528Z,14.77
2019-02-22T22:15:10.626Z,14.37
2019-02-22T22:20:16.225Z,13.53
2019-02-22T22:25:21.413Z,14.43
2019-02-22T22:30:26.644Z,14.80
2019-02-22T22:35:32.191Z,13.63
2019-02-22T22:40:37.498Z,13.30
2019-02-22T22:45:43.093Z,13.50
2019-02-22T22:50:48.294Z,13.63
2019-02-22T22:55:53.480Z,13.30
2019-02-22T23:01:15.450Z,13.30
2019-02-22T23:06:21.092Z,13.47
2019-02-22T23:11:26.280Z,13.77
2019-02-22T23:16:31.528Z,15.83
2019-02-22T23:21:36.719Z,15.33
2019-02-22T23:26:41.930Z,16.00
2019-02-22T23:31:47.637Z,16.30
2019-02-22T23:36:53.232Z,16.27
2019-02-22T23:41:58.906Z,15.70
2019-02-22T23:47:04.111Z,16.03
2019-02-22T23:52:10.463Z,16.07
2019-02-22T23:57:15.961Z,16.03
